METAR AND TAF INFORMATION

METAR FOR OTHH
ADDS - METARS form results

(0809 UTC 29 September 2022)
Data provider http://aviationweather.gov/metar/data/
 
METAR text: OTHH 290800Z 35006KT 310V010 CAVOK 34/16 Q1006 NOSIG
Conditions at: OTHH (DOHA HAMAD INTL , QA) observed 0800 UTC 29 September 2022
Temperature: 34.0°C (93°F)
Dewpoint: 16.0°C (61°F) [RH = 34%]
Pressure (altimeter): 29.70 inches Hg (1006.0 mb)
Winds: from the N (350 degrees) at 7 MPH (6 knots; 3.1 m/s)
Visibility: 6 or more miles (10+ km)
Ceiling: ceiling and visibility are OK
Clouds: unknown
Weather: no significant weather observed at this time

Forecast for: OTHH (DOHA HAMAD INTL , QA)
Text: TAF OTHH 290501Z 2906/3012 30011KT CAVOK
Forecast period: 0600 to 0700 UTC 29 September 2022
Forecast type: FROM: standard forecast or significant change
Winds: from the WNW (300 degrees) at 13 MPH (11 knots; 5.7 m/s)
Visibility: 6 or more miles (10+ km)
Ceiling: unknown
Clouds: missing
Weather: NSW  (no significant weather)
Text: BECMG 2907/2909 03012KT 8000 NSC
Forecast period: 0700 UTC 29 September 2022 to 1200 UTC 30 September 2022
Forecast type: BECOMING: Conditions expected to become as follows by 0900 UTC 29 September 2022
Winds: from the NNE (30 degrees) at 14 MPH (12 knots; 6.2 m/s)
Visibility: 5 miles (8 km)
Ceiling: unknown
Clouds: missing
Weather: NSW  (no significant weather)

 

AIRPORT MAP

 

RUNWAY INFORMATION


 

AIRPORT FREQUENCIES


 

AIRPORT NEAR NAVIGATION AIDS